Time;durP1;ratioP1;P1;durP2;ratioP2;P2;SDS_P1;SDS_P2;PMS_P1;PMS_P2;Temp;Humidity;BMP_temperature;BMP_pressure;BME280_temperature;BME280_humidity;BME280_pressure;Samples;Min_cycle;Max_cycle;Signal;HPM_P1;HPM_P2
2024/03/23 00:01:51;;;;;;;53.40;24.60;;;;;;;14.44;41.25;99817.58;108057;1254;61091;-67
2024/03/23 00:04:19;;;;;;;55.90;27.20;;;;;;;14.56;41.01;99808.96;108153;1256;73868;-67
2024/03/23 00:06:46;;;;;;;51.20;27.30;;;;;;;14.46;41.17;99803.31;108097;1253;69202;-67
2024/03/23 00:09:13;;;;;;;52.20;26.90;;;;;;;14.46;41.19;99801.20;108100;1254;72662;-67
2024/03/23 00:11:41;;;;;;;39.00;24.40;;;;;;;14.39;41.27;99799.64;108025;1254;60057;-67
2024/03/23 00:14:08;;;;;;;50.10;26.70;;;;;;;14.40;41.34;99799.95;108062;1254;61064;-67
2024/03/23 00:16:35;;;;;;;50.80;28.10;;;;;;;14.35;41.32;99796.16;108224;1254;74179;-67
2024/03/23 00:19:03;;;;;;;49.70;26.60;;;;;;;14.29;41.49;99795.14;108123;1256;68983;-67
2024/03/23 00:21:30;;;;;;;50.40;26.80;;;;;;;14.23;41.59;99794.45;107938;1256;72775;-67
2024/03/23 00:23:58;;;;;;;56.60;29.70;;;;;;;14.12;41.71;99794.68;108212;1254;61093;-67
2024/03/23 00:26:25;;;;;;;49.20;26.30;;;;;;;14.14;41.66;99788.40;108178;1254;61231;-67
2024/03/23 00:28:52;;;;;;;52.40;27.20;;;;;;;13.98;42.12;99784.73;108149;1254;74583;-67
2024/03/23 00:31:21;;;;;;;61.80;28.20;;;;;;;14.16;41.79;99787.59;108098;1254;68899;-67
2024/03/23 00:33:48;;;;;;;51.90;25.70;;;;;;;14.21;41.64;99783.39;108103;1254;72747;-67
2024/03/23 00:36:15;;;;;;;52.70;27.10;;;;;;;14.12;41.88;99784.10;108119;1254;61224;-67
2024/03/23 00:38:43;;;;;;;46.40;25.30;;;;;;;13.96;42.27;99781.63;108231;1254;61000;-67
2024/03/23 00:41:10;;;;;;;50.70;26.60;;;;;;;14.00;42.24;99781.76;108259;1254;74626;-67
2024/03/23 00:43:38;;;;;;;49.10;27.10;;;;;;;14.15;42.01;99780.95;108200;1254;72247;-68
2024/03/23 00:46:05;;;;;;;48.50;25.90;;;;;;;14.09;42.09;99778.08;108234;1253;71923;-67
2024/03/23 00:48:32;;;;;;;55.70;28.10;;;;;;;14.12;42.10;99779.86;108182;1254;60831;-67
2024/03/23 00:51:00;;;;;;;47.30;26.40;;;;;;;14.37;41.77;99775.23;108231;1254;62374;-67
2024/03/23 00:53:27;;;;;;;46.60;25.70;;;;;;;14.29;41.74;99776.23;108180;1253;74624;-67
2024/03/23 00:55:54;;;;;;;51.80;27.00;;;;;;;14.35;41.65;99770.92;108174;1253;70067;-67
2024/03/23 00:58:21;;;;;;;47.80;28.20;;;;;;;14.39;41.73;99765.24;108208;1252;72443;-67
2024/03/23 01:00:49;;;;;;;48.10;27.50;;;;;;;14.39;41.72;99765.05;108205;1254;61142;-67
2024/03/23 01:03:16;;;;;;;49.40;26.40;;;;;;;14.50;41.39;99760.16;108214;1254;61071;-66
2024/03/23 01:05:43;;;;;;;51.80;26.80;;;;;;;14.49;41.47;99757.73;108260;1254;72606;-66
2024/03/23 01:08:11;;;;;;;54.00;27.00;;;;;;;14.48;41.40;99756.05;108166;1254;68998;-67
2024/03/23 01:10:38;;;;;;;45.80;26.60;;;;;;;14.41;41.61;99749.94;108156;1254;72173;-67
2024/03/23 01:13:05;;;;;;;55.10;26.90;;;;;;;14.34;41.68;99746.63;108201;1254;61067;-67
2024/03/23 01:15:33;;;;;;;56.80;28.00;;;;;;;14.47;41.53;99748.16;108168;1254;61195;-67
2024/03/23 01:18:00;;;;;;;57.10;27.90;;;;;;;14.35;41.66;99746.40;108158;1254;73425;-67
2024/03/23 01:20:27;;;;;;;48.50;27.60;;;;;;;14.42;41.57;99744.91;108168;1254;69203;-66
2024/03/23 01:22:54;;;;;;;58.00;29.00;;;;;;;14.34;41.72;99743.11;108204;1254;71664;-68
2024/03/23 01:25:23;;;;;;;59.00;29.30;;;;;;;14.22;41.96;99737.05;108133;1256;61136;-67
2024/03/23 01:27:51;;;;;;;49.10;27.90;;;;;;;14.24;41.85;99737.32;108217;1252;61221;-67
2024/03/23 01:30:18;;;;;;;51.20;26.00;;;;;;;14.25;41.87;99737.62;108101;1252;73925;-67
2024/03/23 01:32:46;;;;;;;55.40;29.20;;;;;;;14.22;42.07;99736.19;108150;1254;70133;-69
2024/03/23 01:35:13;;;;;;;56.30;29.20;;;;;;;14.42;41.56;99735.04;108147;1254;72479;-67
2024/03/23 01:37:40;;;;;;;52.90;27.00;;;;;;;14.48;41.42;99734.14;108060;1254;61093;-67
2024/03/23 01:40:08;;;;;;;53.70;28.40;;;;;;;14.41;41.44;99732.25;108100;1256;61334;-68
2024/03/23 01:42:36;;;;;;;56.10;27.40;;;;;;;14.29;41.54;99734.16;108025;1254;74641;-68
2024/03/23 01:45:03;;;;;;;48.30;26.80;;;;;;;14.28;41.67;99727.92;108156;1254;69954;-68
2024/03/23 01:47:31;;;;;;;57.00;28.50;;;;;;;14.24;41.72;99726.52;107973;1254;72422;-67
2024/03/23 01:49:58;;;;;;;48.10;25.10;;;;;;;14.12;42.17;99724.97;108119;1254;61232;-66
2024/03/23 01:52:30;;;;;;;53.10;28.40;;;;;;;14.09;42.34;99722.14;108200;1252;61125;-66
2024/03/23 01:54:57;;;;;;;53.70;27.00;;;;;;;14.19;41.99;99722.25;108177;1254;73375;-66
2024/03/23 01:57:24;;;;;;;57.40;28.90;;;;;;;14.14;42.20;99720.06;108179;1254;68901;-68
2024/03/23 01:59:53;;;;;;;54.60;28.30;;;;;;;14.41;41.67;99719.17;108080;1254;71959;-67
2024/03/23 02:02:23;;;;;;;46.40;26.00;;;;;;;14.48;41.43;99712.03;108222;1253;61192;-67
2024/03/23 02:04:51;;;;;;;49.70;27.40;;;;;;;14.46;41.66;99713.91;108162;1254;61346;-67
2024/03/23 02:07:18;;;;;;;54.70;26.90;;;;;;;14.51;41.44;99710.68;108179;1253;74285;-67
2024/03/23 02:09:45;;;;;;;47.50;25.90;;;;;;;14.33;41.79;99712.02;108152;1254;69223;-68
2024/03/23 02:12:12;;;;;;;59.10;30.00;;;;;;;14.11;42.16;99706.88;108156;1255;71675;-67
2024/03/23 02:14:39;;;;;;;50.00;27.40;;;;;;;14.07;42.16;99705.48;108153;1254;61221;-67
2024/03/23 02:17:07;;;;;;;53.50;28.80;;;;;;;14.05;42.35;99702.06;108244;1254;61208;-66
2024/03/23 02:19:34;;;;;;;54.00;29.40;;;;;;;14.10;42.16;99700.20;108086;1253;74817;-66
2024/03/23 02:22:01;;;;;;;55.40;29.50;;;;;;;14.10;42.17;99700.21;108089;1254;70021;-67
2024/03/23 02:24:29;;;;;;;59.60;29.30;;;;;;;14.08;42.14;99701.02;108241;1254;72509;-66
2024/03/23 02:26:56;;;;;;;52.20;28.40;;;;;;;13.94;42.42;99695.11;108185;1254;61227;-66
2024/03/23 02:29:23;;;;;;;51.60;28.00;;;;;;;13.84;42.55;99693.53;108149;1254;61083;-67
2024/03/23 02:31:51;;;;;;;56.50;30.60;;;;;;;13.88;42.52;99689.08;108105;1257;72342;-66
2024/03/23 02:34:18;;;;;;;52.40;28.10;;;;;;;13.77;42.76;99688.15;108161;1254;71010;-66
2024/03/23 02:36:45;;;;;;;57.40;30.50;;;;;;;13.77;42.77;99691.00;108168;1254;71435;-67
2024/03/23 02:39:12;;;;;;;56.10;30.10;;;;;;;13.78;42.66;99687.20;108181;1256;61099;-67
2024/03/23 02:41:40;;;;;;;50.50;27.70;;;;;;;13.79;42.65;99684.14;108180;1254;61005;-66
2024/03/23 02:46:49;;;;;;;54.70;28.60;;;;;;;12.17;46.50;99680.92;104942;1289;600243;-67
2024/03/23 02:49:16;;;;;;;49.30;27.80;;;;;;;13.38;43.69;99676.24;107430;1268;60071;-67
2024/03/23 02:51:45;;;;;;;61.50;29.90;;;;;;;13.44;43.45;99678.55;107327;1263;59502;-66
2024/03/23 02:54:12;;;;;;;50.00;26.70;;;;;;;13.48;43.49;99676.75;107396;1263;71836;-66
2024/03/23 02:56:39;;;;;;;54.60;29.80;;;;;;;13.39;43.53;99673.52;107371;1263;68704;-67
2024/03/23 02:59:06;;;;;;;60.00;29.30;;;;;;;13.24;43.83;99667.11;107313;1262;72116;-66
2024/03/23 03:01:34;;;;;;;46.50;25.50;;;;;;;13.11;44.05;99666.59;108081;1256;256436;-67
2024/03/23 03:04:01;;;;;;;47.30;25.90;;;;;;;13.12;44.01;99664.05;108304;1249;59957;-66
2024/03/23 03:06:30;;;;;;;40.30;23.80;;;;;;;13.06;44.16;99659.64;108302;1250;73025;-66
2024/03/23 03:08:57;;;;;;;47.20;27.40;;;;;;;12.95;44.52;99659.33;108302;1251;69953;-67
2024/03/23 03:11:24;;;;;;;53.30;27.50;;;;;;;12.89;44.74;99656.67;108282;1250;71424;-66
2024/03/23 03:13:52;;;;;;;55.30;27.20;;;;;;;13.06;44.61;99652.59;108328;1252;60338;-67
2024/03/23 03:16:19;;;;;;;48.30;27.00;;;;;;;13.07;44.60;99649.36;108427;1250;60506;-67
2024/03/23 03:18:46;;;;;;;53.40;27.40;;;;;;;12.99;44.64;99642.91;108298;1250;72648;-67
2024/03/23 03:21:13;;;;;;;46.90;25.80;;;;;;;12.96;44.91;99639.19;108315;1249;70313;-67
2024/03/23 03:23:41;;;;;;;50.20;27.50;;;;;;;13.05;44.81;99637.98;108371;1250;72668;-67
2024/03/23 03:26:08;;;;;;;52.00;26.00;;;;;;;13.13;44.85;99635.46;108364;1250;61161;-67
2024/03/23 03:28:35;;;;;;;53.00;27.80;;;;;;;13.08;44.92;99632.93;108222;1250;60448;-67
2024/03/23 03:31:02;;;;;;;48.50;26.20;;;;;;;12.94;45.23;99633.31;108209;1251;73810;-66
2024/03/23 03:33:30;;;;;;;44.50;23.70;;;;;;;12.83;45.58;99629.70;108250;1256;70189;-67
2024/03/23 03:35:57;;;;;;;52.00;27.80;;;;;;;12.91;45.46;99626.59;108160;1256;71167;-66
2024/03/23 03:38:24;;;;;;;42.30;24.80;;;;;;;12.99;45.42;99628.48;108201;1251;60885;-66
2024/03/23 03:40:53;;;;;;;53.60;26.60;;;;;;;13.13;45.08;99630.33;108249;1251;60145;-67
2024/03/23 03:43:20;;;;;;;48.80;26.10;;;;;;;12.89;45.35;99630.42;108184;1251;73874;-68
2024/03/23 03:45:57;;;;;;;52.00;25.30;;;;;;;13.00;44.94;99632.65;108189;1251;70175;-67
2024/03/23 03:48:24;;;;;;;50.50;29.20;;;;;;;13.18;44.61;99632.70;108206;1251;71395;-66
2024/03/23 03:50:52;;;;;;;54.80;28.90;;;;;;;12.98;44.94;99624.64;108173;1254;60394;-67
2024/03/23 03:53:19;;;;;;;44.30;24.30;;;;;;;12.72;45.44;99619.70;108214;1251;60405;-67
2024/03/23 03:55:47;;;;;;;46.70;26.40;;;;;;;12.50;45.85;99622.12;108184;1251;72398;-67
2024/03/23 03:58:14;;;;;;;52.40;27.50;;;;;;;12.50;46.00;99621.45;108174;1256;70844;-67
2024/03/23 04:00:41;;;;;;;57.60;29.20;;;;;;;12.52;46.22;99617.63;108211;1251;72726;-66
2024/03/23 04:03:08;;;;;;;47.00;26.60;;;;;;;12.59;46.25;99617.42;108227;1251;60275;-66
2024/03/23 04:05:36;;;;;;;44.60;25.60;;;;;;;12.52;46.49;99613.05;108198;1251;60526;-66
2024/03/23 04:08:04;;;;;;;54.80;28.80;;;;;;;12.56;46.42;99609.83;108127;1251;73857;-66
2024/03/23 04:10:31;;;;;;;59.60;28.00;;;;;;;12.38;47.09;99609.52;108182;1251;69432;-67
2024/03/23 04:12:59;;;;;;;54.10;26.40;;;;;;;12.43;47.17;99605.77;108168;1254;71466;-66
2024/03/23 04:15:26;;;;;;;51.70;27.40;;;;;;;12.48;47.28;99601.27;108139;1256;60415;-67
2024/03/23 04:17:53;;;;;;;46.60;26.80;;;;;;;12.58;47.41;99601.79;108208;1251;60419;-67
2024/03/23 04:20:21;;;;;;;51.80;26.60;;;;;;;12.76;47.17;99598.89;108185;1251;73946;-67
2024/03/23 04:22:48;;;;;;;46.30;25.30;;;;;;;12.91;46.81;99598.45;108232;1251;69993;-67
2024/03/23 04:25:15;;;;;;;55.20;28.50;;;;;;;12.69;47.48;99597.86;108232;1251;72812;-68
2024/03/23 04:27:43;;;;;;;53.00;26.70;;;;;;;12.85;47.14;99601.41;108199;1254;60324;-67
2024/03/23 04:30:11;;;;;;;44.70;24.70;;;;;;;13.03;46.84;99609.89;108144;1251;60415;-67
2024/03/23 04:32:38;;;;;;;51.00;25.90;;;;;;;13.18;46.42;99605.73;108242;1251;74338;-67
2024/03/23 04:35:06;;;;;;;43.40;24.30;;;;;;;13.19;46.36;99605.33;108246;1256;70272;-68
2024/03/23 04:37:33;;;;;;;49.10;25.40;;;;;;;13.17;46.59;99605.59;108174;1253;71315;-69
2024/03/23 04:40:02;;;;;;;50.70;25.80;;;;;;;13.25;46.47;99602.17;108177;1253;60829;-67
2024/03/23 04:42:30;;;;;;;40.50;23.50;;;;;;;13.40;46.22;99601.55;108220;1251;60175;-67
2024/03/23 04:44:57;;;;;;;46.50;24.40;;;;;;;13.35;46.50;99605.36;108175;1257;72254;-67
2024/03/23 04:47:24;;;;;;;45.40;24.70;;;;;;;13.47;46.28;99598.66;108140;1257;68875;-67
2024/03/23 04:49:52;;;;;;;40.10;23.30;;;;;;;13.62;46.22;99590.40;108011;1251;72511;-67
2024/03/23 04:52:19;;;;;;;44.10;23.00;;;;;;;13.60;46.18;99590.88;108183;1256;60845;-67
2024/03/23 04:54:47;;;;;;;38.60;21.30;;;;;;;13.66;46.14;99587.51;108233;1256;60433;-68
2024/03/23 04:57:14;;;;;;;47.90;24.50;;;;;;;13.73;46.13;99580.39;108159;1253;72523;-67
2024/03/23 04:59:47;;;;;;;47.50;24.10;;;;;;;13.76;45.98;99578.29;108273;1254;68804;-67
2024/03/23 05:02:15;;;;;;;40.70;21.70;;;;;;;13.90;45.77;99574.24;108179;1257;72675;-67
2024/03/23 05:04:42;;;;;;;46.00;24.30;;;;;;;13.79;46.11;99570.13;108283;1251;60326;-67
2024/03/23 05:07:09;;;;;;;41.40;24.00;;;;;;;13.85;45.95;99574.41;108190;1257;60540;-67
2024/03/23 05:09:36;;;;;;;39.90;20.90;;;;;;;13.87;46.13;99570.41;108120;1252;73982;-67
2024/03/23 05:12:07;;;;;;;37.90;22.70;;;;;;;13.90;45.97;99568.84;108133;1251;70310;-67
2024/03/23 05:14:34;;;;;;;50.50;25.80;;;;;;;13.97;45.90;99565.04;108136;1254;70679;-67
2024/03/23 05:17:02;;;;;;;40.90;23.30;;;;;;;13.98;46.01;99568.84;108142;1253;61052;-67
2024/03/23 05:19:29;;;;;;;42.30;23.20;;;;;;;14.12;45.74;99572.29;108137;1256;60438;-67
2024/03/23 05:21:56;;;;;;;40.00;22.80;;;;;;;14.14;45.97;99571.27;108251;1251;72633;-67
2024/03/23 05:24:24;;;;;;;46.60;22.70;;;;;;;14.26;45.64;99567.33;108193;1257;70306;-67
2024/03/23 05:26:51;;;;;;;39.00;21.90;;;;;;;14.47;45.16;99563.09;108108;1254;72698;-68
2024/03/23 05:29:18;;;;;;;43.50;23.50;;;;;;;14.57;45.19;99560.90;108154;1257;60936;-67
2024/03/23 05:31:49;;;;;;;41.80;23.50;;;;;;;14.90;44.45;99560.02;108255;1251;59990;-68
2024/03/23 05:34:16;;;;;;;44.40;23.70;;;;;;;14.76;44.75;99559.47;108257;1251;71837;-67
2024/03/23 05:36:43;;;;;;;48.40;24.30;;;;;;;14.72;44.82;99556.23;108139;1254;71625;-67
2024/03/23 05:39:11;;;;;;;44.40;24.10;;;;;;;14.82;44.74;99561.59;108096;1257;72476;-67
2024/03/23 05:41:38;;;;;;;41.40;22.90;;;;;;;14.79;45.01;99555.23;108112;1254;60837;-67
2024/03/23 05:44:06;;;;;;;39.90;22.40;;;;;;;14.75;44.94;99560.59;108090;1253;60241;-67
2024/03/23 05:46:33;;;;;;;42.00;21.50;;;;;;;14.75;45.15;99566.63;108110;1254;72606;-67
2024/03/23 05:49:01;;;;;;;45.10;23.60;;;;;;;14.79;45.14;99566.05;108076;1254;70800;-67
2024/03/23 05:51:28;;;;;;;45.20;24.50;;;;;;;14.88;44.89;99561.73;108072;1254;72510;-67
2024/03/23 05:53:55;;;;;;;44.40;23.60;;;;;;;14.92;45.06;99565.94;107970;1253;60881;-67
2024/03/23 05:56:23;;;;;;;47.60;24.10;;;;;;;14.94;44.98;99559.94;108052;1253;60398;-67
2024/03/23 05:58:50;;;;;;;44.00;22.40;;;;;;;15.08;44.77;99556.23;108048;1253;72641;-67
2024/03/23 06:01:17;;;;;;;41.30;21.20;;;;;;;15.07;44.88;99556.63;108107;1260;70118;-68
2024/03/23 06:03:45;;;;;;;43.80;22.30;;;;;;;15.23;44.47;99552.77;108105;1254;71465;-67
2024/03/23 06:06:12;;;;;;;43.20;22.80;;;;;;;15.18;44.86;99557.55;108137;1254;61893;-67
2024/03/23 06:08:41;;;;;;;46.90;23.70;;;;;;;15.31;44.67;99555.81;108098;1253;60979;-67
2024/03/23 06:11:08;;;;;;;51.00;26.00;;;;;;;15.43;44.37;99555.88;108098;1259;73784;-67
2024/03/23 06:13:36;;;;;;;44.80;24.40;;;;;;;15.51;44.49;99550.04;108104;1254;69574;-68
2024/03/23 06:16:04;;;;;;;47.60;23.30;;;;;;;15.49;44.23;99552.47;108019;1259;71064;-67
2024/03/23 06:18:31;;;;;;;39.40;20.70;;;;;;;15.62;44.16;99550.36;108057;1253;60932;-67
2024/03/23 06:20:58;;;;;;;47.40;24.50;;;;;;;15.68;44.03;99550.88;108045;1252;60472;-67
2024/03/23 06:23:26;;;;;;;45.50;23.60;;;;;;;15.87;43.65;99554.73;108132;1258;73823;-67
2024/03/23 06:25:53;;;;;;;45.30;23.70;;;;;;;15.82;43.87;99554.02;108004;1254;70726;-68
2024/03/23 06:28:21;;;;;;;45.80;23.70;;;;;;;15.71;43.93;99557.94;108068;1253;72710;-68
2024/03/23 06:30:51;;;;;;;42.50;23.20;;;;;;;15.87;43.88;99556.46;108044;1259;61012;-67
2024/03/23 06:33:19;;;;;;;46.60;23.90;;;;;;;15.88;44.09;99549.54;108117;1254;60153;-68
2024/03/23 06:35:52;;;;;;;39.40;20.20;;;;;;;15.89;43.86;99555.17;108072;1251;72892;-68
2024/03/23 06:38:20;;;;;;;43.40;23.20;;;;;;;15.70;44.47;99550.05;108118;1251;68599;-68
2024/03/23 06:40:50;;;;;;;45.50;24.30;;;;;;;15.77;44.39;99552.08;108140;1256;72640;-68
2024/03/23 06:43:18;;;;;;;41.40;22.70;;;;;;;15.84;44.30;99547.33;108173;1253;60400;-69
2024/03/23 06:45:52;;;;;;;38.80;21.20;;;;;;;15.78;44.49;99550.92;108169;1252;60616;-67
2024/03/23 06:48:20;;;;;;;38.90;21.20;;;;;;;15.84;44.24;99547.52;108213;1251;74474;-67
2024/03/23 06:50:48;;;;;;;38.60;19.70;;;;;;;15.78;44.47;99548.45;108104;1252;69742;-67
2024/03/23 06:53:15;;;;;;;38.00;20.90;;;;;;;15.81;44.66;99546.98;108080;1251;73304;-68
2024/03/23 06:55:42;;;;;;;40.40;20.90;;;;;;;16.05;43.89;99549.06;108153;1251;61096;-67
2024/03/23 06:58:10;;;;;;;37.10;20.60;;;;;;;15.96;44.39;99545.09;108006;1251;61201;-67
2024/03/23 07:00:37;;;;;;;35.80;19.70;;;;;;;15.99;44.26;99545.39;108100;1251;73809;-68
2024/03/23 07:03:06;;;;;;;38.40;20.40;;;;;;;16.09;43.88;99539.59;108078;1257;70207;-67
2024/03/23 07:05:34;;;;;;;38.30;20.20;;;;;;;16.14;44.02;99539.40;108142;1251;72687;-67
2024/03/23 07:08:01;;;;;;;35.50;20.10;;;;;;;16.33;43.52;99540.03;108198;1251;59647;-67
2024/03/23 07:10:28;;;;;;;33.70;17.90;;;;;;;16.29;43.78;99540.52;108094;1257;61098;-67
2024/03/23 07:12:55;;;;;;;32.10;18.30;;;;;;;16.28;43.78;99534.02;108131;1251;74774;-67
2024/03/23 07:15:23;;;;;;;35.00;19.50;;;;;;;16.21;43.81;99531.83;108109;1251;70337;-69
2024/03/23 07:17:50;;;;;;;33.50;17.80;;;;;;;16.14;44.19;99531.67;108071;1257;71732;-67
2024/03/23 07:20:17;;;;;;;32.40;17.90;;;;;;;16.16;44.01;99531.64;108109;1257;61225;-67
2024/03/23 07:22:46;;;;;;;31.30;17.70;;;;;;;16.35;43.71;99525.89;108127;1251;61409;-67
2024/03/23 07:25:13;;;;;;;35.90;19.80;;;;;;;16.44;43.87;99527.36;108178;1251;74635;-67
2024/03/23 07:27:40;;;;;;;35.30;18.70;;;;;;;16.47;43.59;99528.05;108121;1254;68470;-67
2024/03/23 07:30:08;;;;;;;32.50;18.50;;;;;;;16.38;43.91;99526.44;108052;1254;71456;-67
2024/03/23 07:32:36;;;;;;;42.10;20.80;;;;;;;16.40;43.92;99524.16;108126;1254;61095;-67
2024/03/23 07:35:04;;;;;;;37.40;20.80;;;;;;;16.59;43.53;99520.47;108092;1257;61252;-67
2024/03/23 07:37:31;;;;;;;35.60;20.00;;;;;;;16.50;43.72;99521.27;108075;1254;74696;-67
2024/03/23 07:39:59;;;;;;;35.80;20.30;;;;;;;16.63;43.52;99521.15;108075;1257;72194;-67
2024/03/23 07:42:27;;;;;;;36.20;19.80;;;;;;;16.71;43.39;99518.73;108120;1254;71660;-67
2024/03/23 07:44:56;;;;;;;43.30;21.20;;;;;;;16.38;43.93;99518.44;108093;1255;60223;-67
2024/03/23 07:47:24;;;;;;;35.90;20.30;;;;;;;16.66;43.55;99519.27;108199;1253;61199;-66
2024/03/23 07:49:51;;;;;;;38.30;20.10;;;;;;;16.94;43.26;99514.95;108153;1254;73431;-67
2024/03/23 07:52:18;;;;;;;36.40;19.60;;;;;;;16.94;42.99;99516.88;108152;1253;69011;-67
2024/03/23 07:54:45;;;;;;;37.80;19.20;;;;;;;17.09;42.77;99513.00;108113;1254;72446;-67
2024/03/23 07:57:13;;;;;;;36.10;19.20;;;;;;;16.97;43.00;99511.02;108054;1254;61120;-67
2024/03/23 07:59:40;;;;;;;34.50;19.50;;;;;;;17.08;42.64;99514.33;108131;1258;61246;-68
2024/03/23 08:02:07;;;;;;;39.10;20.70;;;;;;;16.98;42.93;99516.64;108072;1254;74924;-67
2024/03/23 08:04:34;;;;;;;39.60;21.10;;;;;;;17.11;42.73;99516.02;108035;1257;70089;-67
2024/03/23 08:07:01;;;;;;;36.80;20.80;;;;;;;17.19;42.35;99512.81;108040;1259;72709;-67
2024/03/23 08:09:29;;;;;;;36.50;20.20;;;;;;;17.05;43.01;99517.01;108054;1253;63049;-68
2024/03/23 08:11:56;;;;;;;38.10;19.60;;;;;;;16.96;42.96;99516.77;108007;1260;61215;-68
2024/03/23 08:14:24;;;;;;;41.30;21.00;;;;;;;16.83;43.45;99514.52;108071;1253;73374;-68
2024/03/23 08:16:51;;;;;;;43.70;22.70;;;;;;;17.15;42.91;99517.55;108110;1259;70125;-67
2024/03/23 08:19:18;;;;;;;36.10;20.10;;;;;;;17.17;42.82;99520.04;108160;1259;72969;-68
2024/03/23 08:21:46;;;;;;;37.30;20.20;;;;;;;17.00;43.15;99516.27;108155;1254;61247;-68
2024/03/23 08:24:13;;;;;;;35.40;19.80;;;;;;;17.18;42.67;99509.88;108132;1254;61072;-68
2024/03/23 08:26:40;;;;;;;32.90;18.60;;;;;;;17.34;42.42;99502.07;108171;1253;74875;-68
2024/03/23 08:29:07;;;;;;;37.70;20.50;;;;;;;17.29;42.80;99498.42;108091;1254;70610;-67
2024/03/23 08:31:35;;;;;;;43.40;21.80;;;;;;;17.50;42.28;99499.66;108180;1254;73926;-68
2024/03/23 08:34:02;;;;;;;38.40;22.40;;;;;;;17.36;42.65;99490.39;108073;1254;63749;-68
2024/03/23 08:36:30;;;;;;;42.00;21.30;;;;;;;17.60;42.21;99486.44;108175;1251;61199;-68
2024/03/23 08:38:57;;;;;;;39.10;21.80;;;;;;;17.68;41.89;99483.33;108138;1251;74609;-68
2024/03/23 08:41:25;;;;;;;33.90;20.00;;;;;;;17.53;42.31;99485.36;108164;1251;70187;-67
2024/03/23 08:43:53;;;;;;;34.20;20.00;;;;;;;17.60;41.98;99483.42;108199;1251;74513;-68
2024/03/23 08:46:20;;;;;;;34.20;19.10;;;;;;;17.50;42.24;99480.69;108158;1251;61637;-68
2024/03/23 08:48:48;;;;;;;34.50;19.40;;;;;;;17.84;41.78;99474.52;108181;1257;61137;-67
2024/03/23 08:51:16;;;;;;;34.20;20.00;;;;;;;17.98;41.18;99475.04;108156;1251;74372;-68
2024/03/23 08:53:43;;;;;;;36.30;21.00;;;;;;;17.73;41.78;99472.35;108141;1251;68738;-68
2024/03/23 08:56:11;;;;;;;42.40;21.30;;;;;;;18.03;41.15;99465.91;108050;1251;72776;-67
2024/03/23 08:58:38;;;;;;;36.10;21.30;;;;;;;18.09;41.19;99461.70;108082;1251;60359;-68
2024/03/23 09:01:11;;;;;;;35.30;20.20;;;;;;;18.14;41.26;99460.13;107999;1259;61384;-68
2024/03/23 09:03:39;;;;;;;33.20;18.80;;;;;;;18.02;41.20;99465.63;108080;1251;76894;-68
2024/03/23 09:06:16;;;;;;;33.50;20.80;;;;;;;17.57;42.22;99469.11;108119;1251;70841;-67
2024/03/23 09:08:44;;;;;;;40.00;20.60;;;;;;;18.14;41.37;99465.11;108045;1254;72744;-67
2024/03/23 09:11:12;;;;;;;34.30;20.00;;;;;;;18.11;41.36;99461.23;108194;1254;61077;-68
2024/03/23 09:13:39;;;;;;;32.90;19.90;;;;;;;17.76;42.05;99457.69;108296;1251;61125;-68
2024/03/23 09:16:07;;;;;;;35.40;20.00;;;;;;;18.14;41.26;99453.20;108149;1251;74203;-68
2024/03/23 09:18:35;;;;;;;35.50;19.50;;;;;;;18.37;40.78;99451.17;108107;1251;70420;-67
2024/03/23 09:21:04;;;;;;;36.90;19.50;;;;;;;18.22;41.18;99454.89;108177;1253;72773;-68
2024/03/23 09:23:31;;;;;;;31.90;19.00;;;;;;;18.18;41.10;99452.14;108132;1251;61672;-68
2024/03/23 09:26:03;;;;;;;36.10;19.20;;;;;;;18.05;41.49;99447.13;108158;1251;61603;-68
2024/03/23 09:28:30;;;;;;;38.10;18.50;;;;;;;18.10;41.46;99443.02;108068;1251;75029;-68
2024/03/23 09:31:04;;;;;;;35.30;19.20;;;;;;;18.07;41.59;99440.91;108166;1251;70797;-68
2024/03/23 09:33:32;;;;;;;34.00;18.90;;;;;;;18.42;41.17;99429.79;108133;1254;71460;-68
2024/03/23 09:36:03;;;;;;;32.10;19.10;;;;;;;18.51;40.72;99426.73;108158;1256;61975;-68
2024/03/23 09:38:30;;;;;;;34.00;19.10;;;;;;;18.64;40.66;99423.90;108220;1251;61150;-68
2024/03/23 09:40:59;;;;;;;34.90;18.70;;;;;;;18.75;40.61;99419.51;108106;1251;77027;-68
2024/03/23 09:43:26;;;;;;;37.90;20.20;;;;;;;18.99;39.99;99413.26;108119;1251;69556;-68
2024/03/23 09:45:53;;;;;;;35.40;18.90;;;;;;;18.74;40.61;99417.44;108182;1251;72704;-68
2024/03/23 09:48:21;;;;;;;33.50;20.00;;;;;;;18.72;40.69;99415.64;108096;1251;63864;-68
2024/03/23 09:50:48;;;;;;;40.20;19.10;;;;;;;18.92;40.11;99411.54;108082;1251;61176;-68
2024/03/23 09:53:16;;;;;;;32.80;20.10;;;;;;;18.90;40.63;99407.41;108122;1251;73435;-68
2024/03/23 09:55:44;;;;;;;36.20;18.70;;;;;;;19.04;40.06;99407.52;108175;1251;71314;-67
2024/03/23 09:58:16;;;;;;;34.20;19.30;;;;;;;18.76;40.63;99405.20;108146;1251;72484;-68
2024/03/23 10:00:44;;;;;;;35.70;18.30;;;;;;;18.86;40.52;99402.08;108162;1254;61235;-68
2024/03/23 10:03:14;;;;;;;37.60;20.00;;;;;;;18.69;40.82;99400.44;108153;1251;60534;-68
2024/03/23 10:05:42;;;;;;;42.10;21.20;;;;;;;18.51;41.36;99398.31;108202;1251;74909;-68
2024/03/23 10:08:14;;;;;;;40.40;21.70;;;;;;;18.64;41.13;99397.23;108156;1251;71486;-68
2024/03/23 10:10:45;;;;;;;38.40;21.70;;;;;;;18.84;40.77;99397.05;108130;1256;72614;-68
2024/03/23 10:13:26;;;;;;;40.90;21.90;;;;;;;18.94;40.66;99389.52;108106;1251;64305;-68
2024/03/23 10:15:57;;;;;;;42.50;22.90;;;;;;;19.34;39.93;99381.26;108166;1251;61131;-68
2024/03/23 10:18:25;;;;;;;38.00;21.00;;;;;;;19.26;40.00;99378.05;108118;1251;74684;-68
2024/03/23 10:21:05;;;;;;;47.40;22.80;;;;;;;19.44;39.87;99379.75;108175;1251;70026;-68
2024/03/23 10:23:39;;;;;;;34.90;19.90;;;;;;;19.54;39.49;99379.03;108167;1253;74776;-69
2024/03/23 10:26:25;;;;;;;37.90;21.00;;;;;;;19.52;39.50;99379.03;108172;1251;61075;-68
2024/03/23 10:29:11;;;;;;;35.90;18.20;;;;;;;19.48;39.45;99371.73;108126;1251;61104;-68
2024/03/23 10:31:41;;;;;;;35.70;18.30;;;;;;;19.43;39.36;99364.70;108153;1251;74760;-68
2024/03/23 10:34:09;;;;;;;39.30;21.00;;;;;;;19.27;39.78;99361.77;108172;1251;69536;-67
2024/03/23 10:36:36;;;;;;;36.10;20.30;;;;;;;19.43;39.62;99360.59;108026;1254;73483;-68
2024/03/23 10:39:04;;;;;;;33.30;18.10;;;;;;;19.63;39.08;99361.54;107985;1254;61285;-68
2024/03/23 10:41:35;;;;;;;34.90;18.50;;;;;;;19.60;39.40;99359.32;108113;1255;62363;-68
2024/03/23 10:44:02;;;;;;;36.50;20.60;;;;;;;19.63;39.09;99359.24;108050;1253;73622;-67
2024/03/23 10:46:29;;;;;;;33.30;19.30;;;;;;;19.97;38.74;99358.06;108006;1254;72272;-68
2024/03/23 10:48:57;;;;;;;34.80;20.00;;;;;;;20.25;38.41;99350.38;107894;1253;75094;-68
2024/03/23 10:51:24;;;;;;;32.40;17.50;;;;;;;20.72;37.42;99343.91;108028;1254;61282;-68
2024/03/23 10:53:51;;;;;;;30.50;17.60;;;;;;;20.48;37.76;99340.80;107953;1254;61261;-68
2024/03/23 10:56:18;;;;;;;32.80;18.90;;;;;;;20.57;37.47;99333.38;107943;1254;74482;-68
2024/03/23 10:58:47;;;;;;;37.00;19.60;;;;;;;20.66;37.35;99325.52;107941;1259;70508;-68
2024/03/23 11:01:15;;;;;;;34.90;17.70;;;;;;;20.59;37.58;99320.60;108091;1253;72742;-68
2024/03/23 11:03:46;;;;;;;31.40;17.10;;;;;;;20.34;37.82;99313.98;107945;1254;62114;-68
2024/03/23 11:06:34;;;;;;;29.30;17.20;;;;;;;20.52;37.73;99315.67;108052;1253;60462;-68
2024/03/23 11:09:01;;;;;;;31.40;17.60;;;;;;;20.74;37.46;99314.05;108062;1253;76853;-68
2024/03/23 11:11:31;;;;;;;27.30;15.40;;;;;;;20.96;37.00;99309.68;108038;1253;70784;-68
2024/03/23 11:13:59;;;;;;;31.10;16.60;;;;;;;20.73;37.28;99306.99;108056;1254;73201;-68
2024/03/23 11:16:32;;;;;;;28.70;16.70;;;;;;;20.95;36.91;99302.11;108027;1254;61356;-68